Latest Weather Observations for Noarlunga

IDS60801

Issued at 8:02 pm CST Thursday 24 September 2020 (issued every 10 minutes, with the page automatically refreshed every 10 minutes)

About weather observations | Map of weather stations | Latest weather observations for SA | Other Formats
Station Details ID: 023885 Name: NOARLUNGA Lat: -35.16 Lon: 138.51 Height: 55.0 m
Data from the previous 72 hours. | See also: Recent months at Noarlunga
Date/Time
CST
Temp
°C
App
Temp
°C
Dew
Point
°C
Rel
Hum
%
Delta-T
°C
Wind Press
QNH
hPa
Press
MSL
hPa
Rain since
9am
mm
Dir  Spd
km/h
Gust
km/h
Spd
kts
Gust
kts
24/08:00pm 8.9 4.4 6.0 82 1.3 W 19 30 10 16 - - 7.0
24/07:30pm 9.4 5.9 7.0 85 1.1 WNW 15 28 8 15 - - 6.2
24/07:00pm 8.5 2.5 7.0 90 0.7 WNW 28 50 15 27 - - 6.2
24/06:56pm 8.7 2.7 7.0 89 0.8 WNW 28 50 15 27 - - 6.0
24/06:30pm 10.9 5.4 6.1 72 2.2 W 24 35 13 19 - - 5.6
24/06:00pm 10.5 6.0 5.9 73 2.1 W 19 33 10 18 - - 5.6
24/05:45pm 10.4 4.2 6.0 74 2.0 W 28 46 15 25 - - 5.6
24/05:30pm 10.8 5.0 6.4 74 2.1 W 26 37 14 20 - - 5.6
24/05:00pm 11.0 5.8 7.1 77 1.9 W 24 50 13 27 - - 5.6
24/04:30pm 10.3 4.3 8.7 90 0.8 W 30 54 16 29 - - 5.4
24/04:21pm 11.4 5.7 8.3 81 1.5 WSW 28 46 15 25 - - 5.4
24/04:00pm 11.9 7.9 9.1 83 1.4 W 20 43 11 23 - - 5.4
24/03:30pm 11.1 6.8 9.5 90 0.8 W 22 39 12 21 - - 5.2
24/03:00pm 11.3 8.0 9.6 89 0.9 NNW 17 28 9 15 - - 5.0
24/02:30pm 10.5 7.6 9.6 94 0.5 NW 15 30 8 16 - - 5.0
24/02:00pm 10.0 4.7 9.7 98 0.2 WNW 28 43 15 23 - - 3.8
24/01:34pm 10.6 5.2 9.5 93 0.6 WNW 28 50 15 27 - - 1.8
24/01:30pm 11.1 6.3 10.2 94 0.5 WNW 26 37 14 20 - - 1.6
24/01:03pm 12.2 6.6 8.9 80 1.7 NW 28 52 15 28 - - 0.6
24/01:00pm 13.0 7.3 8.5 74 2.2 NW 28 44 15 24 - - 0.2
24/12:30pm 14.0 8.4 8.8 71 2.6 NNW 28 50 15 27 - - 0.0
24/12:13pm 13.6 7.5 8.2 70 2.7 NNW 30 50 16 27 - - 0.0
24/12:00pm 14.0 8.3 8.2 68 2.9 NW 28 43 15 23 - - 0.0
24/11:30am 13.9 7.7 7.9 67 3.0 NW 30 43 16 23 - - 0.0
24/11:00am 13.2 8.7 8.5 73 2.4 NW 22 33 12 18 - - 0.0
24/10:30am 12.7 8.2 8.6 76 2.0 NW 22 32 12 17 - - 0.0
24/10:00am 11.7 7.2 8.6 81 1.5 NW 22 33 12 18 - - 0.0
24/09:30am 12.4 8.1 7.7 73 2.3 WNW 20 33 11 18 - - 0.0
24/09:00am 11.8 7.2 8.1 78 1.8 WNW 22 35 12 19 - - 3.6
24/08:30am 12.2 7.4 7.3 72 2.4 WNW 22 37 12 20 - - 3.6
24/08:00am 11.8 8.3 8.6 81 1.6 NW 17 32 9 17 - - 3.6
24/07:30am 10.7 7.4 8.1 84 1.3 WNW 15 26 8 14 - - 3.6
24/07:00am 10.3 7.1 8.6 89 0.8 WNW 15 24 8 13 - - 3.6
24/06:30am 9.1 8.0 8.6 97 0.2 W 4 9 2 5 - - 3.6
24/06:00am 9.0 7.0 8.7 98 0.1 WSW 9 17 5 9 - - 3.4
24/05:30am 9.4 7.4 8.6 95 0.4 WSW 9 17 5 9 - - 2.0
24/05:00am 9.9 7.9 8.5 91 0.7 WNW 9 15 5 8 - - 1.2
24/04:30am 9.7 7.5 8.0 89 0.8 WNW 9 17 5 9 - - 1.2
24/04:00am 9.4 8.3 8.6 95 0.4 W 4 6 2 3 - - 1.2
24/03:30am 9.5 7.9 8.7 95 0.4 W 7 11 4 6 - - 1.2
24/03:00am 9.5 6.7 8.7 95 0.4 W 13 24 7 13 - - 1.0
24/02:30am 11.1 8.8 5.6 69 2.5 WSW 7 11 4 6 - - 0.2
24/02:00am 11.0 8.6 5.1 67 2.7 W 7 15 4 8 - - 0.2
24/01:30am 11.0 8.8 5.1 67 2.7 WSW 6 9 3 5 - - 0.2
24/01:00am 11.2 7.9 4.4 63 3.1 WSW 11 17 6 9 - - 0.2
24/12:30am 11.1 7.7 3.9 61 3.2 WSW 11 22 6 12 - - 0.2
24/12:00am 10.7 6.5 3.7 62 3.1 SW 15 26 8 14 - - 0.2
 
Date/Time
CST
Temp
°C
App
Temp
°C
Dew
Point
°C
Rel
Hum
%
Delta-T
°C
Wind Press
QNH
hPa
Press
MSL
hPa
Rain since
9am
mm
Dir  Spd
km/h
Gust
km/h
Spd
kts
Gust
kts
23/11:30pm 10.7 6.6 4.6 66 2.8 WSW 15 24 8 13 - - 0.2
23/11:00pm 10.7 6.6 4.4 65 2.8 WSW 15 22 8 12 - - 0.2
23/10:30pm 11.0 6.7 5.3 68 2.6 WSW 17 24 9 13 - - 0.2
23/10:00pm 11.0 6.7 5.3 68 2.6 WSW 17 26 9 14 - - 0.2
23/09:30pm 11.2 7.2 4.7 64 2.9 WSW 15 30 8 16 - - 0.2
23/09:00pm 10.7 8.1 6.3 74 2.1 SW 9 15 5 8 - - 0.2
23/08:30pm 11.4 7.6 5.9 69 2.6 SW 15 22 8 12 - - 0.2
23/08:00pm 11.1 8.3 6.8 75 2.0 SW 11 22 6 12 - - 0.2
23/07:30pm 11.2 8.4 7.1 76 2.0 SSW 11 19 6 10 - - 0.2
23/07:00pm 11.9 8.7 7.0 72 2.4 SW 13 20 7 11 - - 0.2
23/06:30pm 11.7 8.4 6.2 69 2.6 SW 13 22 7 12 - - 0.2
23/06:00pm 12.1 8.5 6.8 70 2.5 SW 15 24 8 13 - - 0.2
23/05:30pm 12.8 9.8 7.7 71 2.5 SW 13 20 7 11 - - 0.2
23/05:00pm 13.0 8.8 7.5 69 2.7 WSW 19 35 10 19 - - 0.2
23/04:30pm 12.8 9.1 7.9 72 2.4 SW 17 26 9 14 - - 0.2
23/04:00pm 13.7 10.1 8.5 71 2.6 SW 17 24 9 13 - - 0.2
23/03:30pm 14.0 10.3 10.0 77 2.1 SW 20 32 11 17 - - 0.2
23/03:00pm 12.9 8.6 8.0 72 2.4 WSW 20 30 11 16 - - 0.2
23/02:30pm 12.8 8.4 9.1 78 1.9 SW 22 32 12 17 - - 0.2
23/02:00pm 13.4 10.8 9.3 76 2.1 W 13 22 7 12 - - 0.2
23/01:30pm 12.5 10.4 9.9 84 1.3 WSW 11 19 6 10 - - 0.2
23/01:00pm 14.0 10.0 8.4 69 2.8 WSW 19 28 10 15 - - 0.0
23/12:30pm 14.4 10.2 8.4 67 3.0 WSW 20 32 11 17 - - 0.0
23/12:00pm 14.0 8.9 7.8 66 3.1 WSW 24 37 13 20 - - 0.0
23/11:30am 13.3 9.5 9.0 75 2.2 WSW 19 30 10 16 - - 0.0
23/11:00am 13.8 9.7 7.8 67 3.0 WSW 19 26 10 14 - - 0.0
23/10:30am 13.6 9.3 7.8 68 2.9 WSW 20 37 11 20 - - 0.0
23/10:00am 13.9 9.8 7.7 66 3.1 WSW 19 30 10 16 - - 0.0
23/09:30am 13.1 9.0 8.0 71 2.5 WSW 19 30 10 16 - - 0.0
23/09:00am 13.0 9.5 8.9 76 2.1 WSW 17 28 9 15 - - 6.2
23/08:30am 12.6 8.5 8.7 77 2.0 WSW 20 30 11 16 - - 6.2
23/08:00am 12.3 8.1 8.4 77 1.9 WSW 20 30 11 16 - - 6.2
23/07:30am 11.7 8.1 8.2 79 1.7 WSW 17 32 9 17 - - 6.2
23/07:00am 11.4 7.7 7.9 79 1.7 WSW 17 28 9 15 - - 6.2
23/06:30am 11.1 7.8 8.1 82 1.5 WSW 15 24 8 13 - - 6.2
23/06:00am 10.9 7.6 8.0 82 1.4 WSW 15 26 8 14 - - 6.2
23/05:30am 10.8 6.7 7.9 82 1.4 WSW 19 32 10 17 - - 6.2
23/05:00am 10.5 7.6 9.6 94 0.5 W 15 22 8 12 - - 6.2
23/04:30am 10.9 6.8 8.8 87 1.0 WSW 20 35 11 19 - - 5.4
23/04:00am 11.1 7.5 9.7 91 0.7 W 19 30 10 16 - - 5.2
23/03:30am 10.1 7.8 9.0 93 0.5 W 11 19 6 10 - - 4.8
23/03:00am 10.6 7.8 10.0 96 0.3 WNW 15 24 8 13 - - 4.4
23/02:30am 11.3 7.5 9.0 86 1.1 W 19 30 10 16 - - 4.2
23/02:00am 11.2 6.9 9.3 88 1.0 W 22 41 12 22 - - 4.2
23/01:30am 11.1 7.4 10.0 93 0.6 WNW 20 35 11 19 - - 3.0
23/01:00am 10.3 6.9 9.1 92 0.6 W 17 28 9 15 - - 2.2
23/12:30am 11.5 7.8 10.2 92 0.7 WNW 20 32 11 17 - - 1.8
23/12:00am 10.9 7.4 10.3 96 0.3 WNW 19 30 10 16 - - 1.8
 
Date/Time
CST
Temp
°C
App
Temp
°C
Dew
Point
°C
Rel
Hum
%
Delta-T
°C
Wind Press
QNH
hPa
Press
MSL
hPa
Rain since
9am
mm
Dir  Spd
km/h
Gust
km/h
Spd
kts
Gust
kts
22/11:30pm 11.7 7.6 10.1 90 0.8 WNW 22 35 12 19 - - 1.4
22/11:00pm 12.1 7.5 9.5 84 1.3 WNW 24 39 13 21 - - 1.2
22/10:30pm 12.2 7.9 9.4 83 1.4 WNW 22 39 12 21 - - 1.2
22/10:00pm 12.4 7.7 9.2 81 1.6 WNW 24 41 13 22 - - 1.2
22/09:30pm 12.2 8.4 9.8 85 1.2 WNW 20 35 11 19 - - 1.2
22/09:00pm 12.3 8.5 9.7 84 1.3 WNW 20 32 11 17 - - 1.2
22/08:30pm 12.6 8.8 9.8 83 1.4 WNW 20 32 11 17 - - 1.2
22/08:00pm 12.6 8.3 9.2 80 1.7 WNW 22 35 12 19 - - 1.2
22/07:30pm 12.8 8.5 9.4 80 1.7 W 22 41 12 22 - - 1.2
22/07:00pm 12.4 8.4 10.6 89 0.9 W 22 39 12 21 - - 1.2
22/06:30pm 13.2 9.3 9.6 79 1.8 W 20 33 11 18 - - 0.8
22/06:00pm 13.3 9.4 8.8 74 2.3 W 19 30 10 16 - - 0.8
22/05:30pm 13.6 9.7 9.5 76 2.1 W 20 30 11 16 - - 0.8
22/05:00pm 13.8 10.7 10.4 80 1.8 WNW 17 26 9 14 - - 0.8
22/04:30pm 14.4 10.8 10.4 77 2.1 WNW 20 32 11 17 - - 0.8
22/04:00pm 13.7 9.7 10.5 81 1.7 NW 22 32 12 17 - - 0.8
22/03:30pm 14.7 11.1 10.5 76 2.2 NW 20 33 11 18 - - 0.8
22/03:00pm 14.6 10.5 10.2 75 2.3 WNW 22 35 12 19 - - 0.8
22/02:30pm 14.3 10.4 9.5 73 2.5 WNW 20 33 11 18 - - 0.8
22/02:00pm 13.8 11.3 12.4 91 0.8 WNW 17 30 9 16 - - 0.8
22/01:30pm 13.7 10.0 11.4 86 1.2 WNW 22 32 12 17 - - 0.4
22/01:00pm 15.0 10.2 10.4 74 2.4 WNW 26 41 14 22 - - 0.2
22/12:30pm 14.5 9.3 10.3 76 2.2 WNW 28 44 15 24 - - 0.2
22/12:00pm 14.9 9.4 10.7 76 2.2 WNW 30 52 16 28 - - 0.2
22/11:30am 14.1 8.2 10.3 78 2.0 WNW 32 54 17 29 - - 0.2
22/11:03am 12.4 7.4 11.0 91 0.7 WNW 28 46 15 25 - - 0.2
22/11:00am 12.7 8.2 11.4 92 0.7 WNW 26 46 14 25 - - 0.2
22/10:32am 14.0 8.1 9.2 73 2.4 WNW 30 57 16 31 - - 0.0
22/10:30am 15.3 10.4 10.1 71 2.7 NW 26 44 14 24 - - 0.0
22/10:00am 15.0 9.2 9.6 70 2.8 NW 30 46 16 25 - - 0.0
22/09:30am 14.3 9.0 9.9 75 2.3 NW 28 43 15 23 - - 0.0
22/09:13am 14.0 8.6 9.6 75 2.3 NW 28 46 15 25 - - 0.0
22/09:00am 13.9 8.5 9.5 75 2.3 NW 28 44 15 24 - - 6.6
22/08:30am 13.4 8.0 9.5 77 2.0 NW 28 46 15 25 - - 6.6
22/08:00am 12.9 7.4 9.0 77 2.0 NW 28 46 15 25 - - 6.6
22/07:30am 12.5 7.0 9.3 81 1.6 NW 28 46 15 25 - - 6.6
22/07:26am 12.5 7.1 9.5 82 1.5 NW 28 46 15 25 - - 6.6
22/07:00am 11.6 6.5 9.3 86 1.2 NW 26 43 14 23 - - 6.4
22/06:37am 12.4 6.4 8.7 78 1.8 NW 30 52 16 28 - - 6.4
22/06:30am 12.3 6.4 9.0 80 1.7 NW 30 43 16 23 - - 6.4
22/06:01am 12.1 5.6 8.8 80 1.6 WNW 33 52 18 28 - - 6.4
22/06:00am 12.1 5.2 8.8 80 1.6 WNW 35 52 19 28 - - 6.4
22/05:53am 12.1 6.1 8.8 80 1.6 NW 30 50 16 27 - - 6.4
22/05:30am 12.1 7.1 9.7 85 1.2 NW 26 39 14 21 - - 6.4
22/05:00am 11.5 6.6 10.1 91 0.7 NW 26 44 14 24 - - 6.4
22/04:30am 12.2 8.0 9.8 85 1.2 NW 22 37 12 20 - - 5.2
22/04:00am 12.0 5.6 8.7 80 1.6 NW 32 48 17 26 - - 5.2
22/03:30am 12.1 7.6 10.0 87 1.1 NW 24 33 13 18 - - 4.8
22/03:00am 11.7 7.7 10.3 91 0.7 NW 22 41 12 22 - - 4.8
22/02:30am 12.2 7.6 9.8 85 1.2 NW 24 46 13 25 - - 4.4
22/02:21am 12.3 7.0 9.7 84 1.3 NW 28 46 15 25 - - 4.4
22/02:00am 11.9 7.3 9.6 86 1.2 NW 24 37 13 20 - - 4.4
22/01:42am 12.2 6.5 9.9 86 1.2 NW 30 50 16 27 - - 4.4
22/01:30am 12.3 7.5 10.2 87 1.1 NW 26 41 14 22 - - 4.4
22/01:00am 11.9 7.0 10.1 89 0.9 NW 26 41 14 22 - - 4.4
22/12:30am 11.7 6.7 10.9 95 0.4 NW 28 43 15 23 - - 2.6
22/12:00am 12.8 8.3 10.2 84 1.3 NW 24 39 13 21 - - 1.8
 
Date/Time
CST
Temp
°C
App
Temp
°C
Dew
Point
°C
Rel
Hum
%
Delta-T
°C
Wind Press
QNH
hPa
Press
MSL
hPa
Rain since
9am
mm
Dir  Spd
km/h
Gust
km/h
Spd
kts
Gust
kts
21/11:30pm 12.7 7.4 9.9 83 1.4 NW 28 44 15 24 - - 1.8
21/11:21pm 12.6 7.3 10.0 84 1.3 NW 28 46 15 25 - - 1.8
21/11:00pm 12.7 7.2 9.3 80 1.7 NW 28 39 15 21 - - 1.8
21/10:30pm 12.7 7.5 10.1 84 1.3 NW 28 44 15 24 - - 1.8
21/10:00pm 13.0 7.4 10.2 83 1.4 WNW 30 52 16 28 - - 1.8
21/09:47pm 13.0 7.6 10.9 87 1.1 NW 30 50 16 27 - - 1.8
21/09:30pm 12.9 7.9 10.8 87 1.1 NW 28 43 15 23 - - 1.8
21/09:12pm 12.7 7.5 10.4 86 1.2 WNW 28 48 15 26 - - 1.8
21/09:00pm 12.6 9.0 11.7 94 0.5 NW 22 37 12 20 - - 1.8
21/08:30pm 13.1 8.3 11.7 91 0.7 NW 28 43 15 23 - - 0.6

Other formats

Comma delimited format used in spreadsheet applications
http://www.bom.gov.au/fwo/IDS60801/IDS60801.94808.axf

JavaScript Object Notation format (JSON) in row-major order
http://www.bom.gov.au/fwo/IDS60801/IDS60801.94808.json

Data quality

Most of these data are generated automatically and are frequently updated. Quality checks on data are not normally performed. It is possible for incorrect values to appear. Refer to information at About Latest Weather Observations and please check the disclaimer before using these data.